createdAt,value
2022-12-18T00:01:21.440Z,100.00
2022-12-18T00:03:48.824Z,100.00
2022-12-18T00:06:16.009Z,100.00
2022-12-18T00:08:43.311Z,100.00
2022-12-18T00:11:13.751Z,100.00
2022-12-18T00:13:41.312Z,100.00
2022-12-18T00:16:11.264Z,100.00
2022-12-18T00:18:38.434Z,100.00
2022-12-18T00:21:07.883Z,100.00
2022-12-18T00:23:36.768Z,100.00
2022-12-18T00:26:13.056Z,100.00
2022-12-18T00:28:39.760Z,100.00
2022-12-18T00:31:12.188Z,100.00
2022-12-18T00:33:39.209Z,100.00
2022-12-18T00:36:21.617Z,100.00
2022-12-18T00:38:48.949Z,100.00
2022-12-18T00:41:39.537Z,100.00
2022-12-18T00:44:10.235Z,100.00
2022-12-18T00:46:37.013Z,100.00
2022-12-18T00:49:04.032Z,100.00
2022-12-18T00:51:30.919Z,100.00
2022-12-18T00:53:57.566Z,100.00
2022-12-18T00:56:24.796Z,100.00
2022-12-18T00:58:53.502Z,100.00
2022-12-18T01:01:20.844Z,100.00
2022-12-18T01:03:47.874Z,100.00
2022-12-18T01:06:16.851Z,100.00
2022-12-18T01:08:44.111Z,100.00
2022-12-18T01:11:16.039Z,100.00
2022-12-18T01:13:43.427Z,100.00
2022-12-18T01:16:13.395Z,100.00
2022-12-18T01:18:40.488Z,100.00
2022-12-18T01:21:09.053Z,100.00
2022-12-18T01:23:38.134Z,100.00
2022-12-18T01:26:07.300Z,100.00
2022-12-18T01:28:36.231Z,100.00
2022-12-18T01:31:19.172Z,100.00
2022-12-18T01:33:47.040Z,100.00
2022-12-18T01:36:29.854Z,100.00
2022-12-18T01:38:57.529Z,100.00
2022-12-18T01:41:27.273Z,100.00
2022-12-18T01:43:58.361Z,100.00
2022-12-18T01:46:26.669Z,100.00
2022-12-18T01:49:02.483Z,100.00
2022-12-18T01:51:31.460Z,100.00
2022-12-18T01:54:00.195Z,100.00
2022-12-18T01:56:26.942Z,100.00
2022-12-18T01:59:04.786Z,100.00
2022-12-18T02:01:33.806Z,100.00
2022-12-18T02:04:20.429Z,100.00
2022-12-18T02:06:52.118Z,100.00
2022-12-18T02:09:25.151Z,100.00
2022-12-18T02:12:07.031Z,100.00
2022-12-18T02:14:50.659Z,100.00
2022-12-18T02:17:21.799Z,100.00
2022-12-18T02:20:00.723Z,100.00
2022-12-18T02:22:51.492Z,100.00
2022-12-18T02:25:41.351Z,100.00
2022-12-18T02:28:14.434Z,100.00
2022-12-18T02:30:43.582Z,100.00
2022-12-18T02:33:13.321Z,100.00
2022-12-18T02:35:42.789Z,100.00
2022-12-18T02:38:10.379Z,100.00
2022-12-18T02:40:39.746Z,100.00
2022-12-18T02:43:12.992Z,100.00
2022-12-18T02:45:55.278Z,100.00
2022-12-18T02:48:32.213Z,100.00
2022-12-18T02:51:30.437Z,100.00
2022-12-18T02:54:18.783Z,100.00
2022-12-18T02:56:53.016Z,100.00
2022-12-18T02:59:24.423Z,100.00
2022-12-18T03:02:18.830Z,100.00
2022-12-18T03:04:54.939Z,100.00
2022-12-18T03:07:37.832Z,100.00
2022-12-18T03:10:12.567Z,100.00
2022-12-18T03:12:44.847Z,100.00
2022-12-18T03:15:24.296Z,100.00
2022-12-18T03:18:05.346Z,100.00
2022-12-18T03:20:37.798Z,100.00
2022-12-18T03:23:12.536Z,100.00
2022-12-18T03:25:45.509Z,100.00
2022-12-18T03:28:20.646Z,100.00
2022-12-18T03:31:00.047Z,100.00
2022-12-18T03:33:31.843Z,100.00
2022-12-18T03:35:58.684Z,100.00
2022-12-18T03:38:25.723Z,100.00
2022-12-18T03:41:04.122Z,100.00
2022-12-18T03:44:01.247Z,100.00
2022-12-18T03:46:34.619Z,100.00
2022-12-18T03:49:13.849Z,100.00
2022-12-18T03:52:07.131Z,100.00
2022-12-18T03:54:36.291Z,100.00
2022-12-18T03:57:31.325Z,100.00
2022-12-18T04:00:19.727Z,100.00
2022-12-18T04:03:00.213Z,100.00
2022-12-18T04:05:36.508Z,100.00
2022-12-18T04:08:04.073Z,100.00
2022-12-18T04:10:37.555Z,100.00
2022-12-18T04:13:04.206Z,100.00
2022-12-18T04:15:32.754Z,100.00
2022-12-18T04:18:00.152Z,100.00
2022-12-18T04:20:35.819Z,100.00
2022-12-18T04:23:03.879Z,100.00
2022-12-18T04:25:30.744Z,100.00
2022-12-18T04:28:10.861Z,100.00
2022-12-18T04:30:39.501Z,100.00
2022-12-18T04:33:17.762Z,100.00
2022-12-18T04:35:44.601Z,100.00
2022-12-18T04:38:11.235Z,100.00
2022-12-18T04:40:39.036Z,100.00
2022-12-18T04:43:12.126Z,100.00
2022-12-18T04:45:39.040Z,100.00
2022-12-18T04:48:07.495Z,100.00
2022-12-18T04:50:34.165Z,100.00
2022-12-18T04:53:00.830Z,100.00
2022-12-18T04:55:28.220Z,100.00
2022-12-18T04:57:57.371Z,100.00
2022-12-18T05:00:23.874Z,100.00
2022-12-18T05:02:50.527Z,100.00
2022-12-18T05:05:17.402Z,100.00
2022-12-18T05:07:44.254Z,100.00
2022-12-18T05:10:11.096Z,100.00
2022-12-18T05:13:00.987Z,100.00
2022-12-18T05:15:33.441Z,100.00
2022-12-18T05:18:04.658Z,100.00
2022-12-18T05:20:31.467Z,100.00
2022-12-18T05:22:58.418Z,100.00
2022-12-18T05:25:25.613Z,100.00
2022-12-18T05:27:52.165Z,100.00
2022-12-18T05:30:18.872Z,100.00
2022-12-18T05:32:45.414Z,100.00
2022-12-18T05:35:12.345Z,100.00
2022-12-18T05:37:43.026Z,100.00
2022-12-18T05:40:11.670Z,100.00
2022-12-18T05:42:38.622Z,100.00
2022-12-18T05:45:06.537Z,100.00
2022-12-18T05:47:33.482Z,100.00
2022-12-18T05:50:00.272Z,100.00
2022-12-18T05:52:26.861Z,100.00
2022-12-18T05:54:53.423Z,100.00
2022-12-18T05:57:20.044Z,100.00
2022-12-18T05:59:46.655Z,100.00
2022-12-18T06:02:13.431Z,100.00
2022-12-18T06:04:40.100Z,100.00
2022-12-18T06:07:06.951Z,100.00
2022-12-18T06:09:33.588Z,100.00
2022-12-18T06:12:00.212Z,100.00
2022-12-18T06:14:26.899Z,100.00
2022-12-18T06:16:53.585Z,100.00
2022-12-18T06:19:20.271Z,100.00
2022-12-18T06:21:46.835Z,100.00
2022-12-18T06:24:13.393Z,100.00
2022-12-18T06:26:40.336Z,100.00
2022-12-18T06:29:07.191Z,100.00
2022-12-18T06:31:33.891Z,100.00
2022-12-18T06:34:03.976Z,100.00
2022-12-18T06:36:30.716Z,100.00
2022-12-18T06:38:58.552Z,100.00
2022-12-18T06:41:25.243Z,100.00
2022-12-18T06:43:55.558Z,100.00
2022-12-18T06:46:28.125Z,100.00
2022-12-18T06:48:54.903Z,100.00
2022-12-18T06:51:23.492Z,100.00
2022-12-18T06:53:53.394Z,100.00
2022-12-18T06:56:20.367Z,100.00
2022-12-18T06:58:47.067Z,100.00
2022-12-18T07:01:14.393Z,100.00
2022-12-18T07:03:42.959Z,100.00
2022-12-18T07:06:18.681Z,100.00
2022-12-18T07:08:46.724Z,100.00
2022-12-18T07:11:14.267Z,100.00
2022-12-18T07:13:41.287Z,100.00
2022-12-18T07:16:24.605Z,100.00
2022-12-18T07:18:51.670Z,100.00
2022-12-18T07:21:20.603Z,100.00
2022-12-18T07:23:48.934Z,100.00
2022-12-18T07:26:18.404Z,100.00
2022-12-18T07:28:45.002Z,100.00
2022-12-18T07:31:21.536Z,100.00
2022-12-18T07:33:49.347Z,100.00
2022-12-18T07:36:16.480Z,100.00
2022-12-18T07:38:43.590Z,100.00
2022-12-18T07:41:13.495Z,100.00
2022-12-18T07:43:42.353Z,100.00
2022-12-18T07:46:10.635Z,100.00
2022-12-18T07:48:39.387Z,100.00
2022-12-18T07:51:07.634Z,100.00
2022-12-18T07:53:36.639Z,100.00
2022-12-18T07:56:26.473Z,100.00
2022-12-18T07:58:53.490Z,100.00
2022-12-18T08:01:20.240Z,100.00
2022-12-18T08:03:48.215Z,100.00
2022-12-18T08:06:15.173Z,100.00
2022-12-18T08:08:43.178Z,100.00
2022-12-18T08:11:10.009Z,100.00
2022-12-18T08:13:37.182Z,100.00
2022-12-18T08:16:07.133Z,100.00
2022-12-18T08:18:35.409Z,100.00
2022-12-18T08:21:19.383Z,100.00
2022-12-18T08:23:48.824Z,100.00
2022-12-18T08:26:16.854Z,100.00
2022-12-18T08:28:43.888Z,100.00
2022-12-18T08:31:11.530Z,100.00
2022-12-18T08:33:40.594Z,100.00
2022-12-18T08:36:11.204Z,100.00
2022-12-18T08:38:38.128Z,100.00
2022-12-18T08:41:07.502Z,100.00
2022-12-18T08:43:53.270Z,100.00
2022-12-18T08:46:21.681Z,100.00
2022-12-18T08:48:48.364Z,100.00
2022-12-18T08:51:17.423Z,100.00
2022-12-18T08:53:45.479Z,100.00
2022-12-18T08:56:12.844Z,100.00
2022-12-18T08:58:42.992Z,100.00
2022-12-18T09:01:12.924Z,100.00
2022-12-18T09:03:40.887Z,100.00
2022-12-18T09:06:08.632Z,100.00
2022-12-18T09:08:39.058Z,100.00
2022-12-18T09:11:11.624Z,100.00
2022-12-18T09:13:38.445Z,100.00
2022-12-18T09:16:05.821Z,100.00
2022-12-18T09:18:32.521Z,100.00
2022-12-18T09:20:59.131Z,100.00
2022-12-18T09:23:25.983Z,100.00
2022-12-18T09:25:52.992Z,100.00
2022-12-18T09:28:20.220Z,100.00
2022-12-18T09:30:50.241Z,99.66
2022-12-18T09:33:18.405Z,100.00
2022-12-18T09:35:48.498Z,99.31
2022-12-18T09:38:18.958Z,99.74
2022-12-18T09:41:16.790Z,99.98
2022-12-18T09:43:50.936Z,99.79
2022-12-18T09:46:23.819Z,99.61
2022-12-18T09:48:54.580Z,99.39
2022-12-18T09:51:27.284Z,98.84
2022-12-18T09:54:02.098Z,98.89
2022-12-18T09:56:35.876Z,99.21
2022-12-18T09:59:06.319Z,98.53
2022-12-18T10:01:43.195Z,98.46
2022-12-18T10:04:11.456Z,98.75
2022-12-18T10:07:09.094Z,98.20
2022-12-18T10:09:44.306Z,97.92
2022-12-18T10:12:24.905Z,97.71
2022-12-18T10:14:59.102Z,97.42
2022-12-18T10:17:55.629Z,96.82
2022-12-18T10:20:38.526Z,96.81
2022-12-18T10:23:21.920Z,96.80
2022-12-18T10:26:07.758Z,96.86
2022-12-18T10:28:38.017Z,96.42
2022-12-18T10:31:07.396Z,95.91
2022-12-18T10:33:35.053Z,96.14
2022-12-18T10:36:01.772Z,96.26
2022-12-18T10:38:40.520Z,96.32
2022-12-18T10:41:18.393Z,95.84
2022-12-18T10:43:45.249Z,95.71
2022-12-18T10:46:12.157Z,95.65
2022-12-18T10:48:51.902Z,95.46
2022-12-18T10:51:23.494Z,95.18
2022-12-18T10:54:06.622Z,94.54
2022-12-18T10:56:38.615Z,94.24
2022-12-18T10:59:12.824Z,94.79
2022-12-18T11:01:58.272Z,94.36
2022-12-18T11:04:31.248Z,93.78
2022-12-18T11:07:01.415Z,93.75
2022-12-18T11:09:30.648Z,93.48
2022-12-18T11:12:03.440Z,93.56
2022-12-18T11:14:47.056Z,93.18
2022-12-18T11:17:27.263Z,93.17
2022-12-18T11:19:59.655Z,92.87
2022-12-18T11:22:33.000Z,92.87
2022-12-18T11:27:59.173Z,92.90
2022-12-18T11:30:32.715Z,92.31
2022-12-18T11:33:19.335Z,91.67
2022-12-18T11:35:59.202Z,92.78
2022-12-18T11:38:30.686Z,92.32
2022-12-18T11:41:05.005Z,92.08
2022-12-18T11:44:11.411Z,91.83
2022-12-18T11:46:47.848Z,92.82
2022-12-18T11:49:48.609Z,91.36
2022-12-18T11:52:26.219Z,91.36
2022-12-18T11:54:56.221Z,91.29
2022-12-18T11:57:31.938Z,91.64
2022-12-18T12:00:11.157Z,90.87
2022-12-18T12:02:52.332Z,91.32
2022-12-18T12:05:37.018Z,91.06
2022-12-18T12:08:18.798Z,90.70
2022-12-18T12:10:45.379Z,90.85
2022-12-18T12:13:41.448Z,90.64
2022-12-18T12:16:26.088Z,90.25
2022-12-18T12:19:21.238Z,90.53
2022-12-18T12:22:02.154Z,89.78
2022-12-18T12:24:50.484Z,90.05
2022-12-18T12:27:17.022Z,89.69
2022-12-18T12:29:49.770Z,89.98
2022-12-18T12:32:34.033Z,89.73
2022-12-18T12:35:09.278Z,88.95
2022-12-18T12:37:45.988Z,89.34
2022-12-18T12:40:50.201Z,89.31
2022-12-18T12:43:27.841Z,89.50
2022-12-18T12:46:07.958Z,89.12
2022-12-18T12:48:43.985Z,89.21
2022-12-18T12:51:17.285Z,89.51
2022-12-18T12:53:44.533Z,88.55
2022-12-18T12:56:15.712Z,88.50
2022-12-18T12:59:04.263Z,87.66
2022-12-18T13:01:53.505Z,89.11
2022-12-18T13:04:49.492Z,88.61
2022-12-18T13:07:42.525Z,88.79
2022-12-18T13:10:12.338Z,88.45
2022-12-18T13:12:57.776Z,88.64
2022-12-18T13:15:31.127Z,89.13
2022-12-18T13:18:06.537Z,88.34
2022-12-18T13:20:41.904Z,88.36
2022-12-18T13:23:41.377Z,88.05
2022-12-18T13:26:09.272Z,88.37
2022-12-18T13:28:48.011Z,88.80
2022-12-18T13:31:15.548Z,88.82
2022-12-18T13:34:23.854Z,88.98
2022-12-18T13:36:35.249Z,88.61
2022-12-18T13:39:18.428Z,88.52
2022-12-18T13:41:51.350Z,88.21
2022-12-18T13:44:35.965Z,88.06
2022-12-18T13:47:27.553Z,88.68
2022-12-18T13:49:56.004Z,88.21
2022-12-18T13:52:26.309Z,88.62
2022-12-18T13:54:56.525Z,88.71
2022-12-18T13:57:34.075Z,88.38
2022-12-18T14:00:25.383Z,88.15
2022-12-18T14:02:52.525Z,88.32
2022-12-18T14:05:26.866Z,88.63
2022-12-18T14:07:55.545Z,87.87
2022-12-18T14:10:45.567Z,87.96
2022-12-18T14:13:12.288Z,87.98
2022-12-18T14:15:48.881Z,88.09
2022-12-18T14:18:15.500Z,87.92
2022-12-18T14:20:49.241Z,88.08
2022-12-18T14:23:46.119Z,87.75
2022-12-18T14:26:25.469Z,88.30
2022-12-18T14:28:52.626Z,87.77
2022-12-18T14:31:25.709Z,87.88
2022-12-18T14:33:53.869Z,87.90
2022-12-18T14:36:26.137Z,87.98
2022-12-18T14:38:55.532Z,87.94
2022-12-18T14:41:23.166Z,87.86
2022-12-18T14:43:51.867Z,87.67
2022-12-18T14:46:36.159Z,87.92
2022-12-18T14:49:07.018Z,88.08
2022-12-18T14:51:35.613Z,88.08
2022-12-18T14:54:08.984Z,87.96
2022-12-18T14:56:43.775Z,87.46
2022-12-18T14:59:24.551Z,87.99
2022-12-18T15:02:00.857Z,88.53
2022-12-18T15:04:36.065Z,88.35
2022-12-18T15:07:12.238Z,87.21
2022-12-18T15:09:40.575Z,87.48
2022-12-18T15:12:25.577Z,87.86
2022-12-18T15:14:52.411Z,88.03
2022-12-18T15:17:24.171Z,87.15
2022-12-18T15:20:01.552Z,87.52
2022-12-18T15:22:35.527Z,87.26
2022-12-18T15:25:06.235Z,88.12
2022-12-18T15:27:36.866Z,87.55
2022-12-18T15:30:09.686Z,87.37
2022-12-18T15:32:38.421Z,87.42
2022-12-18T15:35:16.348Z,87.28
2022-12-18T15:37:43.748Z,87.02
2022-12-18T15:40:18.859Z,87.42
2022-12-18T15:43:07.515Z,86.83
2022-12-18T15:45:34.598Z,87.65
2022-12-18T15:48:01.307Z,87.02
2022-12-18T15:50:28.162Z,87.86
2022-12-18T15:52:56.522Z,87.02
2022-12-18T15:55:43.609Z,86.77
2022-12-18T15:58:12.840Z,86.84
2022-12-18T16:00:41.275Z,86.83
2022-12-18T16:03:08.476Z,86.93
2022-12-18T16:05:35.384Z,86.82
2022-12-18T16:08:02.330Z,86.95
2022-12-18T16:10:32.657Z,85.91
2022-12-18T16:12:59.284Z,86.39
2022-12-18T16:15:26.132Z,86.23
2022-12-18T16:17:53.167Z,86.80
2022-12-18T16:20:22.425Z,85.67
2022-12-18T16:22:49.658Z,86.37
2022-12-18T16:25:22.856Z,86.03
2022-12-18T16:27:50.163Z,86.01
2022-12-18T16:30:22.167Z,86.48
2022-12-18T16:32:51.876Z,85.95
2022-12-18T16:35:18.689Z,85.98
2022-12-18T16:37:45.770Z,85.90
2022-12-18T16:40:15.390Z,85.87
2022-12-18T16:42:44.207Z,86.73
2022-12-18T16:45:18.075Z,86.00
2022-12-18T16:47:45.264Z,85.76
2022-12-18T16:50:12.115Z,86.41
2022-12-18T16:52:39.519Z,86.42
2022-12-18T16:55:06.420Z,85.98
2022-12-18T16:57:33.459Z,86.16
2022-12-18T17:00:05.213Z,85.76
2022-12-18T17:02:32.961Z,85.75
2022-12-18T17:05:00.383Z,85.81
2022-12-18T17:07:28.539Z,85.86
2022-12-18T17:09:56.814Z,85.77
2022-12-18T17:12:23.684Z,85.52
2022-12-18T17:14:50.703Z,86.77
2022-12-18T17:17:21.513Z,85.96
2022-12-18T17:19:49.854Z,86.44
2022-12-18T17:22:16.515Z,86.85
2022-12-18T17:24:43.157Z,85.76
2022-12-18T17:27:09.676Z,85.74
2022-12-18T17:29:37.655Z,85.47
2022-12-18T17:32:06.720Z,85.34
2022-12-18T17:34:33.398Z,85.64
2022-12-18T17:37:00.565Z,84.73
2022-12-18T17:39:31.174Z,84.72
2022-12-18T17:42:01.593Z,85.29
2022-12-18T17:44:28.345Z,84.88
2022-12-18T17:46:55.144Z,84.97
2022-12-18T17:49:21.802Z,84.42
2022-12-18T17:51:49.201Z,84.69
2022-12-18T17:54:16.369Z,84.57
2022-12-18T17:56:43.355Z,84.64
2022-12-18T17:59:11.018Z,84.94
2022-12-18T18:01:44.108Z,85.20
2022-12-18T18:04:12.574Z,84.96
2022-12-18T18:06:39.589Z,84.78
2022-12-18T18:09:08.638Z,84.28
2022-12-18T18:12:00.622Z,84.56
2022-12-18T18:14:30.244Z,85.07
2022-12-18T18:16:56.902Z,84.27
2022-12-18T18:19:27.445Z,83.91
2022-12-18T18:21:54.633Z,83.75
2022-12-18T18:24:23.613Z,83.16
2022-12-18T18:26:50.801Z,83.81
2022-12-18T18:29:26.231Z,83.27
2022-12-18T18:31:54.279Z,83.32
2022-12-18T18:34:24.344Z,83.50
2022-12-18T18:36:51.663Z,83.07
2022-12-18T18:39:19.091Z,82.57
2022-12-18T18:41:47.904Z,82.48
2022-12-18T18:44:17.107Z,82.32
2022-12-18T18:46:44.328Z,81.98
2022-12-18T18:49:11.766Z,81.57
2022-12-18T18:51:40.434Z,81.98
2022-12-18T18:54:10.091Z,82.88
2022-12-18T18:59:29.156Z,83.30
2022-12-18T19:02:04.332Z,84.81
2022-12-18T19:04:33.082Z,86.04
2022-12-18T19:07:00.168Z,87.56
2022-12-18T19:09:28.104Z,88.55
2022-12-18T19:12:14.326Z,89.13
2022-12-18T19:14:41.433Z,90.17
2022-12-18T19:17:08.312Z,91.82
2022-12-18T19:19:35.160Z,91.84
2022-12-18T19:22:02.132Z,91.92
2022-12-18T19:24:32.012Z,92.00
2022-12-18T19:26:59.000Z,93.03
2022-12-18T19:29:25.758Z,93.24
2022-12-18T19:31:52.666Z,93.29
2022-12-18T19:34:19.402Z,93.52
2022-12-18T19:36:46.540Z,94.13
2022-12-18T19:39:15.827Z,94.54
2022-12-18T19:41:43.122Z,94.64
2022-12-18T19:44:16.778Z,96.33
2022-12-18T19:46:46.016Z,96.39
2022-12-18T19:49:17.696Z,97.65
2022-12-18T19:51:45.640Z,97.56
2022-12-18T19:54:16.914Z,99.37
2022-12-18T19:56:44.287Z,97.64
2022-12-18T19:59:10.889Z,99.23
2022-12-18T20:01:37.837Z,99.15
2022-12-18T20:04:05.049Z,99.97
2022-12-18T20:06:46.708Z,100.00
2022-12-18T20:09:13.394Z,100.00
2022-12-18T20:11:41.613Z,100.00
2022-12-18T20:14:10.134Z,100.00
2022-12-18T20:16:36.925Z,100.00
2022-12-18T20:19:04.304Z,100.00
2022-12-18T20:21:31.268Z,100.00
2022-12-18T20:24:01.116Z,100.00
2022-12-18T20:26:29.278Z,100.00
2022-12-18T20:28:56.654Z,100.00
2022-12-18T20:31:23.968Z,100.00
2022-12-18T20:33:52.163Z,100.00
2022-12-18T20:36:23.460Z,100.00
2022-12-18T20:38:57.103Z,100.00
2022-12-18T20:41:25.793Z,100.00
2022-12-18T20:43:54.366Z,100.00
2022-12-18T20:46:21.424Z,100.00
2022-12-18T20:48:50.070Z,100.00
2022-12-18T20:51:20.185Z,100.00
2022-12-18T20:53:47.730Z,100.00
2022-12-18T20:56:22.129Z,100.00
2022-12-18T20:58:50.545Z,100.00
2022-12-18T21:01:23.305Z,100.00
2022-12-18T21:03:50.853Z,100.00
2022-12-18T21:06:19.689Z,100.00
2022-12-18T21:08:46.185Z,100.00
2022-12-18T21:11:38.742Z,100.00
2022-12-18T21:14:13.144Z,100.00
2022-12-18T21:16:40.368Z,100.00
2022-12-18T21:19:06.965Z,100.00
2022-12-18T21:21:35.875Z,100.00
2022-12-18T21:24:07.187Z,100.00
2022-12-18T21:26:33.960Z,100.00
2022-12-18T21:29:03.757Z,100.00
2022-12-18T21:31:35.174Z,100.00
2022-12-18T21:34:04.005Z,100.00
2022-12-18T21:36:33.616Z,100.00
2022-12-18T21:39:01.532Z,100.00
2022-12-18T21:41:47.514Z,100.00
2022-12-18T21:44:17.590Z,100.00
2022-12-18T21:46:52.827Z,100.00
2022-12-18T21:49:23.135Z,100.00
2022-12-18T21:51:52.037Z,100.00
2022-12-18T21:54:20.035Z,100.00
2022-12-18T21:56:49.776Z,100.00
2022-12-18T21:59:40.265Z,100.00
2022-12-18T22:02:21.482Z,100.00
2022-12-18T22:04:48.731Z,100.00
2022-12-18T22:07:16.695Z,100.00
2022-12-18T22:09:43.484Z,100.00
2022-12-18T22:12:13.310Z,100.00
2022-12-18T22:14:40.015Z,100.00
2022-12-18T22:17:06.867Z,100.00
2022-12-18T22:19:38.106Z,100.00
2022-12-18T22:22:09.520Z,100.00
2022-12-18T22:24:35.999Z,100.00
2022-12-18T22:27:02.666Z,100.00
2022-12-18T22:29:50.756Z,100.00
2022-12-18T22:32:22.237Z,100.00
2022-12-18T22:35:05.289Z,100.00
2022-12-18T22:37:34.110Z,100.00
2022-12-18T22:40:03.151Z,100.00
2022-12-18T22:42:31.698Z,100.00
2022-12-18T22:45:00.563Z,100.00
2022-12-18T22:47:30.007Z,100.00
2022-12-18T22:49:57.936Z,100.00
2022-12-18T22:52:25.294Z,100.00
2022-12-18T22:54:53.246Z,100.00
2022-12-18T22:57:22.078Z,100.00
2022-12-18T22:59:49.587Z,100.00
2022-12-18T23:02:17.884Z,100.00
2022-12-18T23:04:44.999Z,100.00
2022-12-18T23:07:12.095Z,100.00
2022-12-18T23:09:39.560Z,100.00
2022-12-18T23:12:06.609Z,100.00
2022-12-18T23:14:33.423Z,100.00
2022-12-18T23:17:01.351Z,100.00
2022-12-18T23:19:27.914Z,100.00
2022-12-18T23:21:58.835Z,100.00
2022-12-18T23:24:26.661Z,100.00
2022-12-18T23:26:53.323Z,100.00
2022-12-18T23:29:20.560Z,100.00
2022-12-18T23:31:47.521Z,100.00
2022-12-18T23:34:14.766Z,100.00
2022-12-18T23:36:45.577Z,100.00
2022-12-18T23:39:15.632Z,100.00
2022-12-18T23:41:59.459Z,100.00
2022-12-18T23:44:26.390Z,100.00
2022-12-18T23:46:53.409Z,100.00
2022-12-18T23:49:20.348Z,100.00
2022-12-18T23:51:47.155Z,100.00
2022-12-18T23:54:13.741Z,100.00
2022-12-18T23:56:40.359Z,100.00
2022-12-18T23:59:07.089Z,100.00
